Time;durP1;ratioP1;P1;durP2;ratioP2;P2;SDS_P1;SDS_P2;PMS_P1;PMS_P2;Temp;Humidity;BMP_temperature;BMP_pressure;BME280_temperature;BME280_humidity;BME280_pressure;Samples;Min_cycle;Max_cycle;Signal;HPM_P1;HPM_P2
2023/10/04 00:01:45;;;;;;;5.40;2.17;;;13.20;99.90;;;;;;5052045;28;20206;-49
2023/10/04 00:04:11;;;;;;;4.50;2.28;;;;;;;;;;5051918;28;20201;-50
2023/10/04 00:06:38;;;;;;;4.55;2.28;;;13.10;99.90;;;;;;5052669;28;20171;-53
2023/10/04 00:09:04;;;;;;;7.00;2.47;;;13.10;99.90;;;;;;5052210;28;20155;-51
2023/10/04 00:11:31;;;;;;;7.00;2.47;;;13.10;99.90;;;;;;5052182;28;20167;-51
2023/10/04 00:13:57;;;;;;;12.13;2.72;;;13.10;99.90;;;;;;5052114;28;20313;-51
2023/10/04 00:16:22;;;;;;;8.98;3.10;;;13.00;99.90;;;;;;5052015;28;20690;-50
2023/10/04 00:18:49;;;;;;;7.65;2.55;;;13.00;99.90;;;;;;5052096;28;20249;-50
2023/10/04 00:21:15;;;;;;;10.07;2.35;;;13.00;99.90;;;;;;5052028;28;20159;-50
2023/10/04 00:23:41;;;;;;;8.32;2.95;;;13.00;99.90;;;;;;5052345;28;20198;-47
2023/10/04 00:26:08;;;;;;;10.45;2.72;;;13.00;99.90;;;;;;5052357;28;20634;-48
2023/10/04 00:28:38;;;;;;;10.63;2.50;;;13.00;99.90;;;;;;5051865;28;20166;-47
2023/10/04 00:31:05;;;;;;;6.15;2.88;;;13.00;99.90;;;;;;5051827;28;20166;-48
2023/10/04 00:33:31;;;;;;;8.30;2.67;;;13.00;99.90;;;;;;5051929;28;20206;-48
2023/10/04 00:36:02;;;;;;;6.68;2.42;;;13.00;99.90;;;;;;5052034;28;20175;-51
2023/10/04 00:38:27;;;;;;;10.27;2.53;;;13.00;99.90;;;;;;5051987;28;20188;-49
2023/10/04 00:40:53;;;;;;;7.75;2.38;;;13.00;99.90;;;;;;5051686;28;20163;-50
2023/10/04 00:43:19;;;;;;;10.52;2.92;;;13.00;99.90;;;;;;5051696;28;20249;-52
2023/10/04 00:45:49;;;;;;;11.00;2.97;;;13.00;99.90;;;;;;5051590;28;20253;-52
2023/10/04 00:48:20;;;;;;;6.88;2.00;;;13.00;99.90;;;;;;5051536;28;20167;-53
2023/10/04 00:50:47;;;;;;;9.27;2.63;;;13.00;99.90;;;;;;5051496;28;20707;-50
2023/10/04 00:53:22;;;;;;;8.82;2.65;;;13.00;99.90;;;;;;5051454;28;20202;-52
2023/10/04 00:55:49;;;;;;;7.65;2.78;;;13.00;99.90;;;;;;5051780;28;20173;-49
2023/10/04 00:58:19;;;;;;;7.82;2.28;;;13.00;99.90;;;;;;5051684;28;20193;-49
2023/10/04 01:00:47;;;;;;;8.82;2.80;;;13.00;99.90;;;;;;5051442;28;20167;-48
2023/10/04 01:03:15;;;;;;;7.53;2.30;;;13.00;99.90;;;;;;5051064;28;20178;-49
2023/10/04 01:05:46;;;;;;;10.10;2.75;;;13.00;99.90;;;;;;5051585;28;20171;-49
2023/10/04 01:08:16;;;;;;;6.88;2.45;;;13.00;99.90;;;;;;5051590;28;20281;-49
2023/10/04 01:10:44;;;;;;;10.07;2.10;;;13.00;99.90;;;;;;5051271;28;20266;-49
2023/10/04 01:13:11;;;;;;;7.00;2.30;;;13.00;99.90;;;;;;5051616;28;20198;-49
2023/10/04 01:15:39;;;;;;;8.75;2.70;;;12.90;99.90;;;;;;5051908;28;20224;-48
2023/10/04 01:18:05;;;;;;;7.55;2.00;;;13.00;99.90;;;;;;5051287;28;20163;-48
2023/10/04 01:20:33;;;;;;;6.93;2.70;;;12.90;99.90;;;;;;5051154;28;20162;-46
2023/10/04 01:23:05;;;;;;;7.30;2.33;;;12.90;99.90;;;;;;5033352;28;20250;-48
2023/10/04 01:25:33;;;;;;;8.00;2.50;;;12.90;99.90;;;;;;5051543;28;20202;-51
2023/10/04 01:28:01;;;;;;;8.98;2.22;;;12.90;99.90;;;;;;5051170;28;20228;-49
2023/10/04 01:30:28;;;;;;;6.75;2.38;;;12.80;99.90;;;;;;5051177;28;20163;-49
2023/10/04 01:32:59;;;;;;;7.38;2.85;;;12.90;99.90;;;;;;5033637;28;20285;-50
2023/10/04 01:35:27;;;;;;;7.25;2.30;;;12.80;99.90;;;;;;5033208;28;20540;-49
2023/10/04 01:37:53;;;;;;;8.05;2.63;;;12.80;99.90;;;;;;5051355;28;20252;-49
2023/10/04 01:40:22;;;;;;;8.35;2.83;;;12.80;99.90;;;;;;5051297;28;20224;-48
2023/10/04 01:42:48;;;;;;;8.13;2.08;;;12.80;99.90;;;;;;5051274;28;20210;-48
2023/10/04 01:45:15;;;;;;;9.43;2.60;;;12.80;99.90;;;;;;5050966;28;20263;-46
2023/10/04 01:47:41;;;;;;;11.57;2.47;;;12.80;99.90;;;;;;5051159;28;20179;-49
2023/10/04 01:50:09;;;;;;;12.90;3.42;;;12.80;99.90;;;;;;5051371;28;20170;-49
2023/10/04 01:52:36;;;;;;;9.60;2.33;;;12.70;99.90;;;;;;5051492;28;20261;-49
2023/10/04 01:55:05;;;;;;;11.38;2.28;;;12.80;99.90;;;;;;5051148;28;20232;-49
2023/10/04 01:57:32;;;;;;;7.50;2.20;;;12.80;99.90;;;;;;5051174;28;20170;-48
2023/10/04 01:59:58;;;;;;;7.18;2.55;;;12.70;99.90;;;;;;5051022;28;20266;-48
2023/10/04 02:02:24;;;;;;;4.72;2.50;;;12.70;99.90;;;;;;5050872;28;20194;-49
2023/10/04 02:04:53;;;;;;;7.07;2.50;;;12.70;99.90;;;;;;5050785;28;20649;-48
2023/10/04 02:07:23;;;;;;;11.10;2.38;;;12.80;99.90;;;;;;5051074;28;20573;-50
2023/10/04 02:09:51;;;;;;;12.68;3.38;;;12.70;99.90;;;;;;5050968;28;20171;-47
2023/10/04 02:12:18;;;;;;;8.57;2.13;;;12.80;99.90;;;;;;5050685;28;20167;-46
2023/10/04 02:14:46;;;;;;;9.75;2.97;;;12.70;99.90;;;;;;5053855;28;20214;-48
2023/10/04 02:17:16;;;;;;;6.68;2.45;;;12.80;99.90;;;;;;5054641;28;20178;-48
2023/10/04 02:19:42;;;;;;;6.40;2.25;;;12.80;99.90;;;;;;5054566;28;20170;-48
2023/10/04 02:22:08;;;;;;;10.00;2.88;;;12.80;99.90;;;;;;5054652;28;20178;-49
2023/10/04 02:24:34;;;;;;;8.25;2.47;;;12.80;99.90;;;;;;5054532;28;20185;-52
2023/10/04 02:27:06;;;;;;;8.95;2.67;;;12.80;99.90;;;;;;5054194;28;20170;-52
2023/10/04 02:29:33;;;;;;;10.00;2.53;;;12.80;99.90;;;;;;5054119;28;20174;-52
2023/10/04 02:31:59;;;;;;;8.40;2.45;;;12.80;99.90;;;;;;5054356;28;20171;-53
2023/10/04 02:34:24;;;;;;;8.25;3.10;;;12.80;99.90;;;;;;5054274;28;20206;-53
2023/10/04 02:36:51;;;;;;;9.07;2.70;;;12.80;99.90;;;;;;5054041;28;20163;-49
2023/10/04 02:39:17;;;;;;;10.65;3.53;;;12.80;99.90;;;;;;5054121;28;20171;-52
2023/10/04 02:41:47;;;;;;;7.88;2.33;;;12.80;99.90;;;;;;5053902;28;20173;-52
2023/10/04 02:44:17;;;;;;;6.68;2.30;;;12.80;99.90;;;;;;5053945;28;20177;-52
2023/10/04 02:46:45;;;;;;;6.50;2.17;;;12.80;99.90;;;;;;5053462;28;20216;-53
2023/10/04 02:49:11;;;;;;;9.75;2.42;;;;;;;;;;5054010;28;20170;-51
2023/10/04 02:51:36;;;;;;;5.85;2.40;;;12.80;99.90;;;;;;5054162;28;20175;-51
2023/10/04 02:54:04;;;;;;;11.90;2.50;;;12.90;99.90;;;;;;5053601;28;20206;-51
2023/10/04 02:56:34;;;;;;;7.88;2.38;;;12.90;99.90;;;;;;5053627;28;20581;-49
2023/10/04 02:58:59;;;;;;;9.63;2.20;;;12.90;99.90;;;;;;5053780;28;20243;-51
2023/10/04 03:01:26;;;;;;;8.50;2.35;;;12.90;99.90;;;;;;5053563;28;20626;-52
2023/10/04 03:03:52;;;;;;;9.60;2.60;;;12.80;99.90;;;;;;5053734;28;20312;-51
2023/10/04 03:06:22;;;;;;;6.35;2.33;;;12.90;99.90;;;;;;5053464;28;20246;-51
2023/10/04 03:08:50;;;;;;;10.23;2.58;;;12.90;99.90;;;;;;5053378;28;20171;-52
2023/10/04 03:11:16;;;;;;;7.78;2.33;;;12.80;99.90;;;;;;5035425;28;20250;-51
2023/10/04 03:13:42;;;;;;;12.52;3.10;;;12.90;99.90;;;;;;5053224;28;20336;-52
2023/10/04 03:16:09;;;;;;;7.07;3.03;;;12.80;99.90;;;;;;5053643;28;20167;-49
2023/10/04 03:18:37;;;;;;;8.38;2.63;;;12.90;99.90;;;;;;5053892;28;20234;-53
2023/10/04 03:21:20;;;;;;;9.55;2.60;;;12.90;99.90;;;;;;5053389;28;20166;-53
2023/10/04 03:23:45;;;;;;;8.88;2.42;;;12.90;99.90;;;;;;5053360;28;20171;-52
2023/10/04 03:26:14;;;;;;;8.50;2.60;;;12.90;99.90;;;;;;5052560;28;20173;-52
2023/10/04 03:28:40;;;;;;;8.30;2.53;;;;;;;;;;5052921;28;20653;-50
2023/10/04 03:31:10;;;;;;;8.05;2.72;;;12.80;99.90;;;;;;5053350;28;20170;-51
2023/10/04 03:33:36;;;;;;;7.05;2.25;;;;;;;;;;5053203;28;20704;-48
2023/10/04 03:36:05;;;;;;;11.65;2.50;;;12.80;99.90;;;;;;5052957;28;20167;-49
2023/10/04 03:38:35;;;;;;;17.45;3.20;;;12.80;99.90;;;;;;5052818;28;20173;-48
2023/10/04 03:41:04;;;;;;;6.22;2.58;;;12.90;99.90;;;;;;5052827;28;20167;-48
2023/10/04 03:43:30;;;;;;;11.30;2.70;;;12.80;99.90;;;;;;5052946;28;20198;-48
2023/10/04 03:45:56;;;;;;;7.95;2.40;;;12.80;99.90;;;;;;5052521;28;20202;-47
2023/10/04 03:48:23;;;;;;;11.45;2.85;;;12.80;99.90;;;;;;5052688;28;20533;-48
2023/10/04 03:50:50;;;;;;;5.75;2.33;;;12.80;99.90;;;;;;5052923;28;20200;-48
2023/10/04 03:53:16;;;;;;;13.60;2.65;;;12.80;99.90;;;;;;5052684;28;20210;-49
2023/10/04 03:55:43;;;;;;;7.90;2.22;;;12.70;99.90;;;;;;5052454;28;20634;-52
2023/10/04 03:58:12;;;;;;;11.98;3.40;;;12.70;99.90;;;;;;5034890;28;20228;-51
2023/10/04 04:00:39;;;;;;;16.42;3.03;;;12.70;99.90;;;;;;5052850;28;20167;-50
2023/10/04 04:03:05;;;;;;;7.88;2.47;;;12.70;99.90;;;;;;5053039;28;20178;-48
2023/10/04 04:05:32;;;;;;;9.15;2.22;;;12.70;99.90;;;;;;5052620;28;20174;-49
2023/10/04 04:07:58;;;;;;;10.55;2.90;;;12.70;99.90;;;;;;5052275;28;20163;-49
2023/10/04 04:10:24;;;;;;;10.57;3.40;;;12.70;99.90;;;;;;5052210;28;20165;-49
2023/10/04 04:12:51;;;;;;;13.52;3.03;;;12.60;99.90;;;;;;5052383;28;20171;-49
2023/10/04 04:15:17;;;;;;;11.23;2.97;;;12.60;99.90;;;;;;5052107;28;20590;-49
2023/10/04 04:17:45;;;;;;;17.55;2.70;;;12.60;99.90;;;;;;5052106;28;20166;-52
2023/10/04 04:20:14;;;;;;;9.95;2.22;;;12.60;99.90;;;;;;5051991;28;20189;-49
2023/10/04 04:22:46;;;;;;;8.95;2.88;;;12.60;99.90;;;;;;5052212;28;20171;-49
2023/10/04 04:25:15;;;;;;;8.32;2.53;;;12.50;99.90;;;;;;5052191;28;20174;-49
2023/10/04 04:27:45;;;;;;;8.07;3.10;;;12.50;99.90;;;;;;5052163;28;20171;-49
2023/10/04 04:30:16;;;;;;;10.25;2.63;;;12.50;99.90;;;;;;5051322;28;20166;-49
2023/10/04 04:32:52;;;;;;;8.27;2.45;;;12.50;99.90;;;;;;5051994;28;20254;-48
2023/10/04 04:35:30;;;;;;;10.32;2.72;;;12.50;99.90;;;;;;5052060;28;20269;-50
2023/10/04 04:37:57;;;;;;;7.97;2.60;;;12.50;99.90;;;;;;5051191;28;20175;-50
2023/10/04 04:40:29;;;;;;;9.48;2.65;;;12.40;99.90;;;;;;5051735;28;20173;-52
2023/10/04 04:43:01;;;;;;;9.70;2.28;;;12.40;99.90;;;;;;5051697;28;20174;-48
2023/10/04 04:45:27;;;;;;;8.15;2.40;;;12.40;99.90;;;;;;5051504;28;20218;-49
2023/10/04 04:47:52;;;;;;;7.40;2.63;;;12.40;99.90;;;;;;5051650;28;20265;-49
2023/10/04 04:50:19;;;;;;;13.10;2.55;;;12.40;99.90;;;;;;5051891;28;20739;-48
2023/10/04 04:52:44;;;;;;;8.68;2.67;;;12.30;99.90;;;;;;5051705;28;20509;-49
2023/10/04 04:55:11;;;;;;;15.25;2.97;;;12.40;99.90;;;;;;5051492;28;20163;-51
2023/10/04 04:57:37;;;;;;;9.13;2.28;;;12.40;99.90;;;;;;5052147;28;20185;-52
2023/10/04 05:00:31;;;;;;;9.43;2.60;;;12.30;99.90;;;;;;5051440;28;20658;-49
2023/10/04 05:02:49;;;;;;;10.30;2.78;;;12.30;99.90;;;;;;5051220;28;20718;-52
2023/10/04 05:05:14;;;;;;;8.00;2.83;;;12.30;99.90;;;;;;5051649;28;20202;-51
2023/10/04 05:07:40;;;;;;;12.20;3.38;;;;;;;;;;5051299;28;20630;-49
2023/10/04 05:10:10;;;;;;;10.27;2.45;;;12.20;99.90;;;;;;5051793;28;20167;-51
2023/10/04 05:12:37;;;;;;;9.02;3.03;;;12.30;99.90;;;;;;5051889;28;20167;-49
2023/10/04 05:15:08;;;;;;;14.05;3.10;;;12.20;99.90;;;;;;5051283;28;20163;-50
2023/10/04 05:17:34;;;;;;;12.82;3.20;;;12.10;99.90;;;;;;5051216;28;20630;-50
2023/10/04 05:20:00;;;;;;;11.73;2.65;;;12.20;99.90;;;;;;5051219;28;20166;-49
2023/10/04 05:22:25;;;;;;;13.65;2.53;;;12.20;99.90;;;;;;5016993;28;20185;-49
2023/10/04 05:24:51;;;;;;;11.68;3.20;;;;;;;;;;5051097;28;20185;-48
2023/10/04 05:27:17;;;;;;;10.88;2.80;;;12.10;99.90;;;;;;5051267;28;20173;-48
2023/10/04 05:29:44;;;;;;;9.13;3.22;;;12.10;99.90;;;;;;5051088;28;20162;-49
2023/10/04 05:32:10;;;;;;;20.15;3.40;;;;;;;;;;5051381;28;20224;-50
2023/10/04 05:34:36;;;;;;;13.18;2.92;;;12.10;99.90;;;;;;5051397;28;20567;-50
2023/10/04 05:37:02;;;;;;;10.18;3.03;;;12.10;99.90;;;;;;5051027;28;20499;-49
2023/10/04 05:39:27;;;;;;;15.90;2.90;;;12.10;99.90;;;;;;5050679;28;20167;-49
2023/10/04 05:41:54;;;;;;;11.98;2.88;;;12.10;99.90;;;;;;5050856;28;20256;-48
2023/10/04 05:44:20;;;;;;;6.40;2.72;;;12.10;99.90;;;;;;5051050;28;20170;-50
2023/10/04 05:46:45;;;;;;;13.52;2.70;;;12.00;99.90;;;;;;5050887;28;20227;-48
2023/10/04 05:49:11;;;;;;;11.60;2.78;;;12.10;99.90;;;;;;5053305;28;20169;-49
2023/10/04 05:51:36;;;;;;;14.40;3.25;;;12.10;99.90;;;;;;5055337;28;20650;-49
2023/10/04 05:54:03;;;;;;;9.65;2.55;;;12.00;99.90;;;;;;5054724;28;20234;-50
2023/10/04 05:56:29;;;;;;;10.02;2.72;;;12.00;99.90;;;;;;5054962;28;20171;-49
2023/10/04 05:58:55;;;;;;;9.43;3.17;;;12.00;99.90;;;;;;5055010;28;20198;-49
2023/10/04 06:01:22;;;;;;;8.95;2.70;;;12.00;99.90;;;;;;5054702;28;20238;-48
2023/10/04 06:03:48;;;;;;;16.75;3.05;;;;;;;;;;5054937;28;20166;-48
2023/10/04 06:06:13;;;;;;;13.10;2.78;;;12.00;99.90;;;;;;5036639;28;20177;-49
2023/10/04 06:08:39;;;;;;;13.10;2.97;;;12.00;99.90;;;;;;5054757;28;20167;-48
2023/10/04 06:11:04;;;;;;;11.02;2.40;;;12.00;99.90;;;;;;5054852;28;20171;-51
2023/10/04 06:13:30;;;;;;;10.68;2.72;;;;;;;;;;5054129;28;20272;-50
2023/10/04 06:15:58;;;;;;;8.48;3.40;;;12.00;99.90;;;;;;5054198;28;20190;-48
2023/10/04 06:18:28;;;;;;;9.55;2.75;;;12.10;99.90;;;;;;5054368;28;20661;-50
2023/10/04 06:20:55;;;;;;;13.85;3.38;;;;;;;;;;5054200;28;20668;-51
2023/10/04 06:23:22;;;;;;;7.90;2.80;;;12.10;99.90;;;;;;5053965;28;20155;-48
2023/10/04 06:25:49;;;;;;;14.90;3.22;;;12.10;99.90;;;;;;5054481;28;20232;-51
2023/10/04 06:28:15;;;;;;;9.07;2.60;;;12.20;99.90;;;;;;5054019;28;20166;-52
2023/10/04 06:30:42;;;;;;;13.90;2.97;;;12.20;99.90;;;;;;5054143;28;20624;-51
2023/10/04 06:33:09;;;;;;;12.57;3.33;;;12.30;99.90;;;;;;5054529;28;20198;-52
2023/10/04 06:35:37;;;;;;;11.68;2.72;;;12.30;99.90;;;;;;5054558;28;20227;-50
2023/10/04 06:38:07;;;;;;;9.73;3.17;;;12.30;99.90;;;;;;5054369;28;20242;-51
2023/10/04 06:40:34;;;;;;;10.88;3.15;;;12.30;99.90;;;;;;5056077;28;20594;-51
2023/10/04 06:43:04;;;;;;;12.18;2.70;;;12.30;99.90;;;;;;5073771;28;20256;-51
2023/10/04 06:45:30;;;;;;;11.60;2.88;;;12.40;99.90;;;;;;5073541;28;20206;-48
2023/10/04 06:47:58;;;;;;;11.60;3.00;;;12.40;99.90;;;;;;5073818;28;20172;-50
2023/10/04 06:50:40;;;;;;;7.97;2.60;;;12.40;99.90;;;;;;5073290;28;20162;-50
2023/10/04 06:53:06;;;;;;;12.82;2.95;;;12.50;99.90;;;;;;5074157;28;20204;-49
2023/10/04 06:55:34;;;;;;;12.18;2.80;;;12.60;99.90;;;;;;5073532;28;20513;-51
2023/10/04 06:58:03;;;;;;;9.77;3.25;;;12.60;99.90;;;;;;5073288;28;20167;-50
2023/10/04 07:00:30;;;;;;;8.65;2.53;;;12.70;99.90;;;;;;5072572;28;20181;-52
2023/10/04 07:03:02;;;;;;;9.23;2.85;;;12.70;99.90;;;;;;5073433;28;20174;-49
2023/10/04 07:05:36;;;;;;;13.10;3.10;;;12.80;99.90;;;;;;5072048;28;20247;-50
2023/10/04 07:08:05;;;;;;;10.25;2.75;;;12.90;99.90;;;;;;5072337;28;20184;-50
2023/10/04 07:10:31;;;;;;;16.27;3.70;;;12.90;99.90;;;;;;5073482;28;20176;-51
2023/10/04 07:12:58;;;;;;;6.00;2.55;;;13.00;99.90;;;;;;5073159;28;20170;-52
2023/10/04 07:15:24;;;;;;;6.57;2.45;;;13.10;99.90;;;;;;5073385;28;20961;-50
2023/10/04 07:17:50;;;;;;;10.07;2.83;;;13.10;99.90;;;;;;5073141;28;20170;-49
2023/10/04 07:20:18;;;;;;;15.45;3.08;;;13.10;99.90;;;;;;5073069;28;20189;-49
2023/10/04 07:22:50;;;;;;;9.43;2.90;;;13.30;99.90;;;;;;5073051;28;20167;-48
2023/10/04 07:25:16;;;;;;;6.40;2.25;;;13.30;99.90;;;;;;5073214;28;20224;-48
2023/10/04 07:27:45;;;;;;;9.77;3.13;;;13.40;99.90;;;;;;5073023;28;20579;-48
2023/10/04 07:30:14;;;;;;;10.95;2.90;;;13.50;99.90;;;;;;5073137;28;20170;-48
2023/10/04 07:32:44;;;;;;;7.75;2.90;;;13.60;99.90;;;;;;5072717;28;20526;-48
2023/10/04 07:35:12;;;;;;;10.48;2.83;;;13.60;99.90;;;;;;5072928;28;20170;-48
2023/10/04 07:37:37;;;;;;;7.80;2.70;;;13.70;99.90;;;;;;5073249;28;20642;-47
2023/10/04 07:40:09;;;;;;;9.40;2.38;;;13.70;99.90;;;;;;5072864;28;20173;-48
2023/10/04 07:42:36;;;;;;;9.48;2.58;;;13.70;99.90;;;;;;5073466;28;20178;-51
2023/10/04 07:45:03;;;;;;;7.28;2.63;;;13.80;99.90;;;;;;5072562;28;20626;-51
2023/10/04 07:47:28;;;;;;;8.35;2.72;;;13.90;99.90;;;;;;5072477;28;20229;-52
2023/10/04 07:49:54;;;;;;;10.52;2.72;;;;;;;;;;5072543;28;20177;-51
2023/10/04 07:52:20;;;;;;;8.98;2.67;;;14.10;99.90;;;;;;5072565;28;20250;-51
2023/10/04 07:54:45;;;;;;;12.48;3.30;;;14.20;99.90;;;;;;5072456;28;20216;-52
2023/10/04 07:57:11;;;;;;;14.45;3.10;;;14.10;99.90;;;;;;5072657;28;20170;-48
2023/10/04 07:59:37;;;;;;;9.02;2.90;;;14.10;99.90;;;;;;5072907;28;20170;-52
2023/10/04 08:02:03;;;;;;;11.38;2.95;;;14.20;99.90;;;;;;5072633;28;20559;-51
2023/10/04 08:04:29;;;;;;;7.35;3.10;;;14.20;99.90;;;;;;5072284;28;20170;-50
2023/10/04 08:06:55;;;;;;;7.47;2.58;;;14.30;99.90;;;;;;5054424;28;20181;-52
2023/10/04 08:09:21;;;;;;;6.70;2.67;;;14.30;99.90;;;;;;5072279;28;20162;-48
2023/10/04 08:11:50;;;;;;;13.25;3.08;;;14.30;99.90;;;;;;5072354;28;20269;-50
2023/10/04 08:14:16;;;;;;;9.45;2.60;;;14.50;99.90;;;;;;5072307;28;20564;-48
2023/10/04 08:16:41;;;;;;;11.30;3.10;;;14.60;99.90;;;;;;5072072;28;20196;-49
2023/10/04 08:19:07;;;;;;;9.20;2.88;;;14.60;99.90;;;;;;5072632;28;20196;-51
2023/10/04 08:21:33;;;;;;;7.90;2.75;;;14.70;99.90;;;;;;5072264;28;20277;-52
2023/10/04 08:23:59;;;;;;;9.10;2.70;;;14.80;99.90;;;;;;5072185;28;20593;-52
2023/10/04 08:26:25;;;;;;;11.85;3.20;;;14.80;99.90;;;;;;5072201;28;20227;-51
2023/10/04 08:28:51;;;;;;;10.40;3.05;;;14.80;99.90;;;;;;5071816;28;20170;-52
2023/10/04 08:31:18;;;;;;;11.90;3.08;;;14.90;99.90;;;;;;5072158;28;20162;-51
2023/10/04 08:33:44;;;;;;;11.27;3.35;;;15.10;99.90;;;;;;5071741;28;20679;-51
2023/10/04 08:36:18;;;;;;;6.75;2.45;;;15.20;99.90;;;;;;5071844;28;20170;-49
2023/10/04 08:38:46;;;;;;;10.07;2.85;;;15.30;99.90;;;;;;5072007;28;20173;-49
2023/10/04 08:41:12;;;;;;;9.52;2.65;;;15.20;99.90;;;;;;5072033;28;20169;-49
2023/10/04 08:43:38;;;;;;;9.57;2.50;;;14.90;99.90;;;;;;5072093;28;20189;-48
2023/10/04 08:46:07;;;;;;;7.65;2.65;;;15.10;99.90;;;;;;5071457;28;20310;-50
2023/10/04 08:48:33;;;;;;;7.90;3.17;;;15.10;99.90;;;;;;5071853;28;20210;-49
2023/10/04 08:51:28;;;;;;;10.20;3.08;;;15.10;99.90;;;;;;5071546;28;20175;-49
2023/10/04 08:54:12;;;;;;;8.57;2.92;;;15.30;99.90;;;;;;5071498;28;20220;-50
2023/10/04 08:56:56;;;;;;;9.50;2.67;;;15.40;99.90;;;;;;5072168;28;20166;-50
2023/10/04 08:59:23;;;;;;;12.55;3.00;;;15.50;99.90;;;;;;5071752;28;20174;-49
2023/10/04 09:01:50;;;;;;;9.93;2.97;;;15.50;99.90;;;;;;5071703;28;20276;-51
2023/10/04 09:04:18;;;;;;;10.30;3.45;;;15.60;99.90;;;;;;5071333;28;20176;-49
2023/10/04 09:06:44;;;;;;;11.25;3.13;;;15.70;99.90;;;;;;5071670;28;20224;-51
2023/10/04 09:09:12;;;;;;;12.27;3.03;;;15.60;99.90;;;;;;5071567;28;20239;-52
2023/10/04 09:11:38;;;;;;;9.85;3.03;;;15.70;99.90;;;;;;5071876;28;20162;-49
2023/10/04 09:14:03;;;;;;;12.80;3.50;;;15.70;99.90;;;;;;5071528;28;20263;-50
2023/10/04 09:16:29;;;;;;;15.50;3.50;;;16.00;99.90;;;;;;5071264;28;20583;-50
2023/10/04 09:19:17;;;;;;;10.32;3.25;;;16.10;99.90;;;;;;5071299;28;20250;-49
2023/10/04 09:21:44;;;;;;;10.93;3.20;;;16.20;99.90;;;;;;5071209;28;20182;-48
2023/10/04 09:24:14;;;;;;;9.82;3.03;;;16.40;99.90;;;;;;5073850;28;20181;-48
2023/10/04 09:26:53;;;;;;;10.43;4.20;;;16.50;99.90;;;;;;5075543;28;20176;-50
2023/10/04 09:29:35;;;;;;;8.55;2.78;;;16.70;99.90;;;;;;5075531;28;20577;-49
2023/10/04 09:32:03;;;;;;;12.07;3.47;;;16.70;99.90;;;;;;5075506;28;20170;-50
2023/10/04 09:34:29;;;;;;;14.90;2.97;;;16.70;99.90;;;;;;5075329;28;20275;-50
2023/10/04 09:36:56;;;;;;;18.42;3.42;;;16.80;99.90;;;;;;5075456;28;20166;-51
2023/10/04 09:39:32;;;;;;;9.68;3.42;;;16.90;99.90;;;;;;5057394;28;20525;-50
2023/10/04 09:41:59;;;;;;;12.70;3.33;;;16.80;99.90;;;;;;5075324;28;20205;-52
2023/10/04 09:44:29;;;;;;;11.00;3.33;;;16.80;99.90;;;;;;5075412;28;20680;-48
2023/10/04 09:47:02;;;;;;;10.27;3.65;;;17.10;99.90;;;;;;5074817;28;20225;-50
2023/10/04 09:49:33;;;;;;;11.63;3.80;;;17.20;99.90;;;;;;5075153;28;20213;-48
2023/10/04 09:52:03;;;;;;;7.90;2.80;;;17.20;99.90;;;;;;5075209;28;20550;-48
2023/10/04 09:54:29;;;;;;;9.20;2.92;;;17.40;99.90;;;;;;5074784;28;20289;-47
2023/10/04 09:56:55;;;;;;;11.57;3.67;;;17.20;99.90;;;;;;5075103;28;20253;-48
2023/10/04 09:59:21;;;;;;;12.68;3.40;;;17.10;99.90;;;;;;5056828;28;20192;-48
2023/10/04 10:01:57;;;;;;;9.25;3.40;;;17.20;99.90;;;;;;5075117;28;20166;-47
2023/10/04 10:04:25;;;;;;;10.43;3.38;;;17.30;99.90;;;;;;5074910;28;20181;-48
2023/10/04 10:06:54;;;;;;;10.35;3.53;;;17.20;99.90;;;;;;5074883;28;20261;-46
2023/10/04 10:09:23;;;;;;;13.18;3.90;;;17.30;99.90;;;;;;5074550;28;20177;-46
2023/10/04 10:11:52;;;;;;;9.15;3.22;;;17.40;99.90;;;;;;5074725;28;20166;-46
2023/10/04 10:14:21;;;;;;;7.55;2.95;;;17.20;99.90;;;;;;5074558;28;20198;-48
2023/10/04 10:16:54;;;;;;;11.27;3.65;;;17.20;99.90;;;;;;5074280;28;20205;-51
2023/10/04 10:19:26;;;;;;;10.95;3.75;;;17.40;99.90;;;;;;5074431;28;20669;-51
2023/10/04 10:22:16;;;;;;;12.88;3.97;;;17.30;99.90;;;;;;5074527;28;20170;-51
2023/10/04 10:24:48;;;;;;;9.55;3.70;;;17.30;99.90;;;;;;5074238;28;20170;-51
2023/10/04 10:27:15;;;;;;;12.43;3.67;;;17.40;99.90;;;;;;5056252;28;20591;-50
2023/10/04 10:29:42;;;;;;;9.13;4.18;;;17.50;99.90;;;;;;5074284;28;20180;-52
2023/10/04 10:32:23;;;;;;;10.85;3.85;;;17.60;99.90;;;;;;5074430;28;20642;-50
2023/10/04 10:34:51;;;;;;;6.25;3.22;;;17.60;99.90;;;;;;5072694;28;20205;-52
2023/10/04 10:37:18;;;;;;;8.88;3.80;;;17.80;99.90;;;;;;5073979;28;20162;-51
2023/10/04 10:39:46;;;;;;;9.68;3.20;;;17.70;99.90;;;;;;5073967;28;20169;-50
2023/10/04 10:42:13;;;;;;;9.65;3.80;;;17.60;99.90;;;;;;5074047;28;20169;-51
2023/10/04 10:44:40;;;;;;;11.88;3.53;;;17.50;99.90;;;;;;5073942;28;20158;-47
2023/10/04 10:47:16;;;;;;;17.10;3.80;;;17.40;99.90;;;;;;5074131;28;20206;-51
2023/10/04 10:50:01;;;;;;;9.63;3.83;;;17.40;99.90;;;;;;5073931;28;20173;-51
2023/10/04 10:52:34;;;;;;;12.07;3.90;;;17.70;99.90;;;;;;5074325;28;20604;-52
2023/10/04 10:55:07;;;;;;;14.20;4.43;;;17.70;99.90;;;;;;5073662;28;20614;-50
2023/10/04 10:57:36;;;;;;;11.35;4.32;;;17.60;99.90;;;;;;5073712;28;20169;-49
2023/10/04 11:02:44;;;;;;;11.45;3.67;;;17.70;99.90;;;;;;5073851;28;20239;-50
2023/10/04 11:05:12;;;;;;;16.60;4.07;;;17.90;99.90;;;;;;5073614;28;20308;-48
2023/10/04 11:07:38;;;;;;;9.60;3.67;;;17.60;99.90;;;;;;5074189;28;20541;-50
2023/10/04 11:10:05;;;;;;;8.43;3.92;;;17.70;99.90;;;;;;5074141;28;20595;-49
2023/10/04 11:12:37;;;;;;;8.13;3.50;;;17.50;99.90;;;;;;5073445;28;20170;-49
2023/10/04 11:15:06;;;;;;;10.43;3.90;;;17.60;99.90;;;;;;5073424;28;20267;-47
2023/10/04 11:17:33;;;;;;;8.18;3.83;;;17.50;99.90;;;;;;5073534;28;20170;-47
2023/10/04 11:19:58;;;;;;;9.38;4.10;;;17.50;99.90;;;;;;5073556;28;20798;-47
2023/10/04 11:22:25;;;;;;;10.57;4.03;;;17.40;99.90;;;;;;5073177;28;20637;-48
2023/10/04 11:24:51;;;;;;;14.10;4.07;;;17.50;99.90;;;;;;5073133;28;20166;-47
2023/10/04 11:27:20;;;;;;;11.48;4.03;;;17.60;99.90;;;;;;5072973;28;20169;-47
2023/10/04 11:29:49;;;;;;;8.80;4.10;;;17.70;99.90;;;;;;5073060;28;20212;-46
2023/10/04 11:32:15;;;;;;;11.20;4.47;;;17.70;99.90;;;;;;5073193;28;20178;-47
2023/10/04 11:34:44;;;;;;;10.43;3.90;;;17.80;99.90;;;;;;5072924;28;20251;-47
2023/10/04 11:37:10;;;;;;;13.20;3.72;;;17.90;99.90;;;;;;5072959;28;20223;-49
2023/10/04 11:39:39;;;;;;;10.52;4.07;;;17.70;99.90;;;;;;5073233;28;20166;-47
2023/10/04 11:42:17;;;;;;;13.48;4.32;;;17.70;99.90;;;;;;5073437;28;20170;-49
2023/10/04 11:44:43;;;;;;;12.18;4.18;;;17.70;99.90;;;;;;5072992;28;20173;-48
2023/10/04 11:47:09;;;;;;;10.43;4.13;;;17.90;99.90;;;;;;5072203;28;20224;-48
2023/10/04 11:49:36;;;;;;;8.73;4.10;;;17.90;99.90;;;;;;5071548;28;20174;-48
2023/10/04 11:52:04;;;;;;;8.93;4.10;;;18.00;99.90;;;;;;5071131;28;20179;-49
2023/10/04 11:54:41;;;;;;;13.70;4.80;;;18.00;99.90;;;;;;5071103;28;20210;-49
2023/10/04 11:57:08;;;;;;;13.50;4.65;;;17.80;99.90;;;;;;5071027;28;20692;-51
2023/10/04 11:59:34;;;;;;;12.13;4.55;;;17.70;99.90;;;;;;5070989;28;20174;-49
2023/10/04 12:02:00;;;;;;;12.07;4.55;;;17.70;99.90;;;;;;5070700;28;20168;-49
2023/10/04 12:04:34;;;;;;;12.38;5.03;;;17.90;99.90;;;;;;5070929;28;20185;-47
2023/10/04 12:07:02;;;;;;;11.10;4.63;;;18.00;99.90;;;;;;5070766;28;20170;-51
2023/10/04 12:09:28;;;;;;;13.63;4.85;;;18.10;99.90;;;;;;5070463;28;20166;-49
2023/10/04 12:11:56;;;;;;;9.10;5.00;;;18.10;99.90;;;;;;5070373;28;20653;-50
2023/10/04 12:14:23;;;;;;;12.70;4.80;;;18.10;99.90;;;;;;5070484;28;20209;-50
2023/10/04 12:16:49;;;;;;;10.07;4.55;;;18.10;99.90;;;;;;5070411;28;20173;-50
2023/10/04 12:19:15;;;;;;;14.20;4.93;;;18.00;99.90;;;;;;5070346;28;20170;-50
2023/10/04 12:21:41;;;;;;;12.15;4.55;;;18.00;99.90;;;;;;5070133;28;20169;-50
2023/10/04 12:24:09;;;;;;;14.32;4.68;;;;;;;;;;5070387;28;20239;-50
2023/10/04 12:26:35;;;;;;;13.98;5.32;;;18.20;99.90;;;;;;5070512;28;20630;-49
2023/10/04 12:29:02;;;;;;;12.13;5.00;;;18.10;99.90;;;;;;5070103;28;20597;-49
2023/10/04 12:31:28;;;;;;;10.77;4.90;;;18.10;99.90;;;;;;5070008;28;20245;-49
2023/10/04 12:33:55;;;;;;;12.00;4.65;;;18.00;99.90;;;;;;5070190;28;20241;-50
2023/10/04 12:36:25;;;;;;;13.68;5.40;;;18.20;99.90;;;;;;5070270;28;20170;-50
2023/10/04 12:38:51;;;;;;;14.30;5.32;;;;;;;;;;5070195;28;20174;-50
2023/10/04 12:41:18;;;;;;;11.38;5.07;;;17.90;99.90;;;;;;5070290;28;20189;-48
2023/10/04 12:43:43;;;;;;;11.68;5.78;;;17.80;99.90;;;;;;5069988;28;20212;-50
2023/10/04 12:46:10;;;;;;;12.00;5.10;;;;;;;;;;5069862;28;20222;-50
2023/10/04 12:48:35;;;;;;;12.57;5.30;;;17.90;99.90;;;;;;5070842;28;20558;-53
2023/10/04 12:51:01;;;;;;;14.43;5.07;;;;;;;;;;5069896;28;20174;-51
2023/10/04 12:53:27;;;;;;;11.70;5.22;;;18.00;99.90;;;;;;5069710;28;20239;-49
2023/10/04 12:55:54;;;;;;;12.45;4.80;;;;;;;;;;5069620;28;20535;-48